Hesperides — EANN — position and weather

sailwx.info

Track history (hours):
 
Tides and Currents Weather Stations Pressure Air Temp Water Temp Dewpoint Dewpoint Depression Visibility Wind Speed Wind Dir Waves Ship Positions

Hesperides

Last reported at 2017-Jan-21 09:33 UTC. Time now 2017-Jan-21 10:48 UTC.
Position N 28°09' W 014°03'.

Length 122 m; draft 6.5 m.

Type: Tanker. MMSI: 224462000.

Date/timePositionNaut miles runAvg speedWind from/ knotsBaromVisibWave heightAir tempDewpointWater temp
2017-Jan-21 09:33N 28°09' W 014°03'10 9.7
2017-Jan-21 08:34N 28°04' W 014°12'9 9.0
2017-Jan-21 07:34N 28°01' W 014°22'9 9.5
2017-Jan-21 06:34N 28°02' W 014°32'9 9.1
2017-Jan-21 05:33N 28°02' W 014°43'9 9.1
2017-Jan-21 04:33N 28°03' W 014°53'9 9.3
2017-Jan-21 03:33N 28°03' W 015°03'9 9.0
2017-Jan-21 02:33N 28°01' W 015°13'8 8.5
2017-Jan-21 01:33N 27°58' W 015°22'0 0.0
2017-Jan-19 22:33N 27°59' W 015°23'4 3.7
2017-Jan-19 21:33N 28°00' W 015°19'6 5.5
2017-Jan-19 20:33N 27°55' W 015°17'7 6.9
2017-Jan-19 19:33N 28°02' W 015°17'1 1.2
2017-Jan-19 18:33N 28°02' W 015°19'4 3.9
2017-Jan-19 17:33N 27°59' W 015°16'10 9.6
2017-Jan-19 16:33N 28°08' W 015°19'9 9.1
2017-Jan-19 15:33N 28°14' W 015°27'10 9.6
2017-Jan-19 14:33N 28°17' W 015°37'9 9.5
2017-Jan-19 13:33N 28°20' W 015°47'9 9.4
2017-Jan-19 12:33N 28°24' W 015°57'9 9.2
2017-Jan-19 11:32N 28°27' W 016°07'6 0.3
2017-Jan-18 17:33N 28°29' W 016°14'7 7.4
2017-Jan-18 16:33N 28°25' W 016°06'10 9.7
2017-Jan-18 15:33N 28°22' W 015°56'9 9.4
2017-Jan-18 14:33N 28°18' W 015°46'9 9.2
2017-Jan-18 13:33N 28°15' W 015°36'9 9.0
2017-Jan-18 12:33N 28°13' W 015°26'7 6.9
2017-Jan-18 11:33N 28°10' W 015°20'3 2.8
2017-Jan-18 10:33N 28°13' W 015°20'14 0.5
2017-Jan-17 04:33N 27°59' W 015°22'6 5.8
2017-Jan-17 03:33N 28°04' W 015°22'5 5.5
2017-Jan-17 02:33N 28°09' W 015°25'0 0.0
2017-Jan-17 00:29N 28°09' W 015°25'0 0.0
2017-Jan-16 23:33N 28°09' W 015°25'2 2.0
2017-Jan-16 22:34N 28°07' W 015°24'6 5.9
2017-Jan-16 21:33N 28°10' W 015°18'8 8.2
2017-Jan-16 20:33N 28°12' W 015°09'9 9.3
2017-Jan-16 19:33N 28°06' W 015°01'7 6.8
2017-Jan-16 18:33N 28°05' W 014°53'9 9.3
2017-Jan-16 17:33N 28°11' W 014°45'9 8.8
2017-Jan-16 16:33N 28°05' W 014°38'9 9.1
2017-Jan-16 15:33N 28°01' W 014°29'1010.1
2017-Jan-16 14:33N 28°01' W 014°18'1010.3
2017-Jan-16 13:33N 28°06' W 014°07'29 9.6
2017-Jan-16 10:31N 28°28' W 013°46'1310.1
2017-Jan-16 09:14N 28°40' W 013°40'710.3
2017-Jan-16 08:33N 28°46' W 013°37'1010.2
2017-Jan-16 07:32N 28°56' W 013°32'2 0.1
2017-Jan-15 00:32N 28°55' W 013°34'20 8.8
2017-Jan-14 22:18N 28°48' W 013°55'8 8.2
2017-Jan-14 21:22N 28°47' W 014°04'15 8.4
2017-Jan-14 19:32N 28°40' W 014°19'8 8.2
2017-Jan-14 18:32N 28°36' W 014°28'8 8.6
2017-Jan-14 17:33N 28°32' W 014°36'9 8.8
2017-Jan-14 16:33N 28°28' W 014°45'9 9.1
2017-Jan-14 15:33N 28°24' W 014°54'9 9.1
2017-Jan-14 14:33N 28°17' W 015°02'9 9.3
2017-Jan-14 13:33N 28°10' W 015°08'9 8.9
2017-Jan-14 12:33N 28°04' W 015°15'8 8.0
2017-Jan-14 11:33N 27°58' W 015°22'0 0.0
2017-Jan-13 12:33N 27°59' W 015°22'4 3.7
2017-Jan-13 11:34N 27°59' W 015°18'3 3.2
2017-Jan-13 10:34N 27°58' W 015°15'1 1.1
2017-Jan-13 09:33N 27°58' W 015°13'1 1.1
2017-Jan-13 08:33N 27°58' W 015°12'62 1.7
2017-Jan-11 20:32N 28°29' W 016°13'5 4.8
2017-Jan-11 19:33N 28°27' W 016°09'9 9.2
2017-Jan-11 18:33N 28°22' W 015°60'9 8.7
2017-Jan-11 17:33N 28°16' W 015°53'1 1.4
2017-Jan-11 16:33N 28°16' W 015°52'5 5.3
2017-Jan-11 15:33N 28°20' W 015°47'9 9.1
2017-Jan-11 14:33N 28°17' W 015°37'9 9.2
2017-Jan-11 13:33N 28°14' W 015°28'8 7.6
2017-Jan-11 12:33N 28°08' W 015°22'  
Track history (hours):
 
Tides and Currents Weather Stations Pressure Air Temp Water Temp Dewpoint Dewpoint Depression Visibility Wind Speed Wind Dir Waves Ship Positions

Hesperides

Last reported at 2017-Jan-21 09:33 UTC. Time now 2017-Jan-21 10:48 UTC.
Position N 28°09' W 014°03'.

Length 122 m; draft 6.5 m.

Type: Tanker. MMSI: 224462000.

Date/timePositionNaut miles runAvg speedWind from/ knotsBaromVisibWave heightAir tempDewpointWater temp
2017-Jan-21 09:33N 28°09' W 014°03'10 9.7
2017-Jan-21 08:34N 28°04' W 014°12'9 9.0
2017-Jan-21 07:34N 28°01' W 014°22'9 9.5
2017-Jan-21 06:34N 28°02' W 014°32'9 9.1
2017-Jan-21 05:33N 28°02' W 014°43'9 9.1
2017-Jan-21 04:33N 28°03' W 014°53'9 9.3
2017-Jan-21 03:33N 28°03' W 015°03'9 9.0
2017-Jan-21 02:33N 28°01' W 015°13'8 8.5
2017-Jan-21 01:33N 27°58' W 015°22'0 0.0
2017-Jan-19 22:33N 27°59' W 015°23'4 3.7
2017-Jan-19 21:33N 28°00' W 015°19'6 5.5
2017-Jan-19 20:33N 27°55' W 015°17'7 6.9
2017-Jan-19 19:33N 28°02' W 015°17'1 1.2
2017-Jan-19 18:33N 28°02' W 015°19'4 3.9
2017-Jan-19 17:33N 27°59' W 015°16'10 9.6
2017-Jan-19 16:33N 28°08' W 015°19'9 9.1
2017-Jan-19 15:33N 28°14' W 015°27'10 9.6
2017-Jan-19 14:33N 28°17' W 015°37'9 9.5
2017-Jan-19 13:33N 28°20' W 015°47'9 9.4
2017-Jan-19 12:33N 28°24' W 015°57'9 9.2
2017-Jan-19 11:32N 28°27' W 016°07'6 0.3
2017-Jan-18 17:33N 28°29' W 016°14'7 7.4
2017-Jan-18 16:33N 28°25' W 016°06'10 9.7
2017-Jan-18 15:33N 28°22' W 015°56'9 9.4
2017-Jan-18 14:33N 28°18' W 015°46'9 9.2
2017-Jan-18 13:33N 28°15' W 015°36'9 9.0
2017-Jan-18 12:33N 28°13' W 015°26'7 6.9
2017-Jan-18 11:33N 28°10' W 015°20'3 2.8
2017-Jan-18 10:33N 28°13' W 015°20'14 0.5
2017-Jan-17 04:33N 27°59' W 015°22'6 5.8
2017-Jan-17 03:33N 28°04' W 015°22'5 5.5
2017-Jan-17 02:33N 28°09' W 015°25'0 0.0
2017-Jan-17 00:29N 28°09' W 015°25'0 0.0
2017-Jan-16 23:33N 28°09' W 015°25'2 2.0
2017-Jan-16 22:34N 28°07' W 015°24'6 5.9
2017-Jan-16 21:33N 28°10' W 015°18'8 8.2
2017-Jan-16 20:33N 28°12' W 015°09'9 9.3
2017-Jan-16 19:33N 28°06' W 015°01'7 6.8
2017-Jan-16 18:33N 28°05' W 014°53'9 9.3
2017-Jan-16 17:33N 28°11' W 014°45'9 8.8
2017-Jan-16 16:33N 28°05' W 014°38'9 9.1
2017-Jan-16 15:33N 28°01' W 014°29'1010.1
2017-Jan-16 14:33N 28°01' W 014°18'1010.3
2017-Jan-16 13:33N 28°06' W 014°07'29 9.6
2017-Jan-16 10:31N 28°28' W 013°46'1310.1
2017-Jan-16 09:14N 28°40' W 013°40'710.3
2017-Jan-16 08:33N 28°46' W 013°37'1010.2
2017-Jan-16 07:32N 28°56' W 013°32'2 0.1
2017-Jan-15 00:32N 28°55' W 013°34'20 8.8
2017-Jan-14 22:18N 28°48' W 013°55'8 8.2
2017-Jan-14 21:22N 28°47' W 014°04'15 8.4
2017-Jan-14 19:32N 28°40' W 014°19'8 8.2
2017-Jan-14 18:32N 28°36' W 014°28'8 8.6
2017-Jan-14 17:33N 28°32' W 014°36'9 8.8
2017-Jan-14 16:33N 28°28' W 014°45'9 9.1
2017-Jan-14 15:33N 28°24' W 014°54'9 9.1
2017-Jan-14 14:33N 28°17' W 015°02'9 9.3
2017-Jan-14 13:33N 28°10' W 015°08'9 8.9
2017-Jan-14 12:33N 28°04' W 015°15'8 8.0
2017-Jan-14 11:33N 27°58' W 015°22'0 0.0
2017-Jan-13 12:33N 27°59' W 015°22'4 3.7
2017-Jan-13 11:34N 27°59' W 015°18'3 3.2
2017-Jan-13 10:34N 27°58' W 015°15'1 1.1
2017-Jan-13 09:33N 27°58' W 015°13'1 1.1
2017-Jan-13 08:33N 27°58' W 015°12'62 1.7
2017-Jan-11 20:32N 28°29' W 016°13'5 4.8
2017-Jan-11 19:33N 28°27' W 016°09'9 9.2
2017-Jan-11 18:33N 28°22' W 015°60'9 8.7
2017-Jan-11 17:33N 28°16' W 015°53'1 1.4
2017-Jan-11 16:33N 28°16' W 015°52'5 5.3
2017-Jan-11 15:33N 28°20' W 015°47'9 9.1
2017-Jan-11 14:33N 28°17' W 015°37'9 9.2
2017-Jan-11 13:33N 28°14' W 015°28'8 7.6
2017-Jan-11 12:33N 28°08' W 015°22'  

Dump ship's entire track history